Terminal Aerodrome Forecast
Issued by NWS Cleveland, OH

Home | Current Version | Previous Version | Text Only | Print | Product List | Glossary On
Versions: 1 2 3 4 5 6 7 8 9 10 11 12 13 14 15 16 17 18 19 20 21 22 23 24 25 26 27
049
FTUS41 KCLE 261137
TAFCLE
TAF
KCLE 261137Z 2612/2718 18010KT P6SM VCTS BKN050CB OVC100
     FM261400 23012KT 5SM -SHRA SCT015 OVC025
     FM262100 27014G24KT P6SM SCT025 OVC060
     FM270100 26010KT P6SM SCT060=

USA.gov is the U.S. government's official web portal to all federal, state and local government web resources and services.